createdAt,value
2018-03-06T00:02:06.696Z,69.31
2018-03-06T00:04:40.429Z,69.29
2018-03-06T00:07:14.161Z,69.41
2018-03-06T00:09:47.797Z,69.52
2018-03-06T00:12:21.470Z,69.59
2018-03-06T00:14:55.157Z,69.64
2018-03-06T00:17:28.682Z,69.64
2018-03-06T00:20:02.319Z,69.51
2018-03-06T00:22:36.093Z,69.12
2018-03-06T00:25:09.714Z,68.86
2018-03-06T00:27:43.282Z,68.98
2018-03-06T00:30:16.925Z,68.96
2018-03-06T00:32:50.573Z,68.73
2018-03-06T00:35:24.225Z,68.89
2018-03-06T00:37:57.985Z,68.71
2018-03-06T00:40:31.569Z,68.73
2018-03-06T00:43:05.244Z,68.64
2018-03-06T00:45:38.821Z,68.54
2018-03-06T00:48:12.326Z,68.72
2018-03-06T00:50:45.874Z,68.73
2018-03-06T00:53:19.510Z,68.82
2018-03-06T00:55:53.356Z,68.72
2018-03-06T00:58:27.058Z,68.57
2018-03-06T01:01:00.721Z,68.69
2018-03-06T01:03:34.300Z,68.90
2018-03-06T01:06:07.949Z,69.01
2018-03-06T01:08:41.524Z,69.11
2018-03-06T01:11:15.180Z,69.05
2018-03-06T01:13:48.780Z,69.06
2018-03-06T01:16:22.261Z,68.75
2018-03-06T01:18:55.944Z,68.94
2018-03-06T01:21:29.568Z,69.16
2018-03-06T01:24:03.173Z,69.01
2018-03-06T01:26:36.757Z,69.14
2018-03-06T01:29:10.429Z,69.26
2018-03-06T01:31:44.047Z,69.28
2018-03-06T01:34:17.745Z,69.35
2018-03-06T01:37:05.977Z,69.51
2018-03-06T01:39:39.670Z,69.40
2018-03-06T01:42:13.307Z,69.34
2018-03-06T01:44:47.046Z,69.38
2018-03-06T01:47:20.741Z,69.57
2018-03-06T01:49:54.205Z,69.25
2018-03-06T01:52:27.817Z,69.00
2018-03-06T01:55:01.366Z,69.18
2018-03-06T01:57:34.999Z,69.44
2018-03-06T02:00:08.703Z,69.67
2018-03-06T02:02:42.405Z,69.53
2018-03-06T02:05:15.981Z,69.86
2018-03-06T02:07:49.705Z,69.96
2018-03-06T02:10:23.413Z,69.95
2018-03-06T02:12:56.992Z,69.85
2018-03-06T02:15:30.561Z,69.72
2018-03-06T02:18:04.248Z,70.01
2018-03-06T02:20:37.897Z,70.13
2018-03-06T02:23:11.477Z,70.16
2018-03-06T02:25:45.011Z,70.05
2018-03-06T02:28:18.697Z,69.69
2018-03-06T02:30:52.225Z,69.52
2018-03-06T02:33:25.814Z,69.49
2018-03-06T02:36:01.329Z,69.40
2018-03-06T02:38:34.890Z,69.28
2018-03-06T02:41:08.554Z,68.99
2018-03-06T02:43:42.049Z,68.61
2018-03-06T02:46:15.659Z,68.18
2018-03-06T02:48:49.259Z,67.86
2018-03-06T02:51:22.885Z,67.43
2018-03-06T02:53:56.661Z,67.47
2018-03-06T02:56:30.349Z,67.19
2018-03-06T02:59:03.993Z,66.85
2018-03-06T03:01:37.668Z,66.47
2018-03-06T03:04:11.274Z,66.31
2018-03-06T03:06:44.964Z,66.16
2018-03-06T03:09:18.833Z,66.19
2018-03-06T03:11:52.537Z,66.19
2018-03-06T03:14:26.086Z,66.24
2018-03-06T03:16:59.750Z,66.08
2018-03-06T03:19:33.295Z,66.09
2018-03-06T03:22:06.837Z,66.25
2018-03-06T03:24:40.525Z,66.41
2018-03-06T03:27:14.141Z,66.54
2018-03-06T03:29:47.824Z,66.49
2018-03-06T03:32:21.378Z,66.22
2018-03-06T03:34:54.965Z,66.37
2018-03-06T03:37:28.597Z,66.06
2018-03-06T03:40:02.246Z,65.98
2018-03-06T03:42:35.790Z,66.00
2018-03-06T03:45:09.305Z,65.77
2018-03-06T03:47:42.891Z,65.77
2018-03-06T03:50:16.489Z,65.79
2018-03-06T03:52:50.089Z,65.68
2018-03-06T03:55:23.735Z,65.80
2018-03-06T03:57:57.604Z,65.67
2018-03-06T04:00:31.433Z,65.28
2018-03-06T04:03:05.037Z,65.29
2018-03-06T04:05:38.818Z,65.34
2018-03-06T04:08:12.460Z,65.21
2018-03-06T04:10:46.058Z,65.20
2018-03-06T04:13:19.629Z,65.40
2018-03-06T04:15:53.425Z,65.35
2018-03-06T04:18:27.066Z,65.35
2018-03-06T04:21:00.693Z,65.27
2018-03-06T04:23:34.317Z,65.20
2018-03-06T04:26:07.965Z,65.26
2018-03-06T04:28:41.592Z,65.19
2018-03-06T04:31:15.321Z,65.10
2018-03-06T04:33:48.953Z,64.82
2018-03-06T04:36:22.529Z,64.78
2018-03-06T04:38:56.161Z,64.74
2018-03-06T04:41:29.793Z,64.64
2018-03-06T04:44:03.345Z,64.67
2018-03-06T04:46:36.898Z,64.66
2018-03-06T04:49:10.502Z,64.78
2018-03-06T04:51:44.101Z,64.65
2018-03-06T04:54:17.789Z,64.53
2018-03-06T04:56:51.367Z,64.52
2018-03-06T04:59:24.984Z,64.31
2018-03-06T05:01:58.772Z,64.22
2018-03-06T05:04:32.393Z,64.07
2018-03-06T05:07:05.993Z,63.75
2018-03-06T05:09:39.614Z,63.60
2018-03-06T05:12:13.197Z,63.81
2018-03-06T05:14:46.846Z,63.62
2018-03-06T05:17:20.538Z,63.55
2018-03-06T05:19:54.174Z,63.32
2018-03-06T05:22:28.353Z,63.33
2018-03-06T05:25:02.079Z,63.57
2018-03-06T05:27:35.673Z,63.41
2018-03-06T05:30:09.269Z,63.68
2018-03-06T05:32:42.896Z,63.46
2018-03-06T05:35:16.538Z,63.56
2018-03-06T05:37:50.153Z,63.33
2018-03-06T05:40:23.857Z,63.45
2018-03-06T05:42:57.465Z,63.78
2018-03-06T05:45:30.989Z,63.98
2018-03-06T05:48:04.665Z,64.09
2018-03-06T05:50:38.433Z,64.16
2018-03-06T05:53:12.216Z,64.09
2018-03-06T05:55:45.796Z,64.23
2018-03-06T05:58:19.359Z,64.13
2018-03-06T06:00:53.958Z,64.22
2018-03-06T06:03:27.518Z,64.27
2018-03-06T06:06:01.245Z,64.17
2018-03-06T06:08:34.912Z,64.15
2018-03-06T06:11:08.518Z,64.44
2018-03-06T06:13:42.084Z,64.36
2018-03-06T06:16:15.642Z,64.47
2018-03-06T06:18:49.317Z,64.53
2018-03-06T06:21:22.868Z,64.50
2018-03-06T06:23:56.318Z,64.48
2018-03-06T06:26:29.898Z,64.60
2018-03-06T06:29:03.781Z,64.61
2018-03-06T06:31:37.395Z,64.72
2018-03-06T06:34:11.045Z,64.49
2018-03-06T06:36:44.634Z,64.48
2018-03-06T06:39:18.356Z,64.44
2018-03-06T06:41:51.845Z,64.44
2018-03-06T06:44:25.531Z,64.31
2018-03-06T06:49:58.409Z,64.05
2018-03-06T06:52:31.926Z,63.86
2018-03-06T06:55:05.588Z,63.76
2018-03-06T06:57:39.276Z,63.66
2018-03-06T07:00:12.998Z,63.70
2018-03-06T07:02:46.607Z,63.52
2018-03-06T07:05:20.238Z,63.50
2018-03-06T07:07:53.920Z,63.58
2018-03-06T07:10:27.518Z,63.50
2018-03-06T07:13:01.083Z,63.45
2018-03-06T07:15:34.767Z,63.26
2018-03-06T07:18:08.403Z,63.14
2018-03-06T07:20:41.950Z,63.00
2018-03-06T07:23:15.461Z,63.06
2018-03-06T07:25:49.030Z,62.88
2018-03-06T07:28:22.570Z,63.00
2018-03-06T07:30:56.185Z,62.89
2018-03-06T07:33:29.813Z,62.96
2018-03-06T07:36:03.469Z,62.56
2018-03-06T07:38:37.109Z,62.19
2018-03-06T07:41:10.693Z,61.82
2018-03-06T07:43:44.278Z,61.42
2018-03-06T07:46:17.960Z,61.20
2018-03-06T07:48:51.637Z,60.68
2018-03-06T07:51:25.273Z,60.47
2018-03-06T07:53:58.934Z,60.52
2018-03-06T07:56:32.806Z,60.26
2018-03-06T07:59:06.479Z,60.81
2018-03-06T08:01:40.296Z,60.43
2018-03-06T08:04:13.836Z,60.43
2018-03-06T08:06:47.421Z,60.50
2018-03-06T08:09:21.136Z,60.11
2018-03-06T08:11:54.678Z,60.08
2018-03-06T08:14:28.280Z,59.76
2018-03-06T08:17:01.890Z,59.51
2018-03-06T08:19:35.526Z,58.83
2018-03-06T08:22:09.178Z,59.01
2018-03-06T08:24:42.777Z,58.89
2018-03-06T08:27:16.349Z,58.63
2018-03-06T08:29:50.018Z,58.54
2018-03-06T08:32:23.657Z,58.24
2018-03-06T08:34:57.293Z,58.03
2018-03-06T08:37:31.217Z,57.58
2018-03-06T08:40:04.721Z,56.69
2018-03-06T08:42:38.434Z,56.58
2018-03-06T08:45:12.086Z,56.16
2018-03-06T08:47:45.729Z,54.04
2018-03-06T08:50:19.373Z,52.12
2018-03-06T08:52:52.890Z,51.30
2018-03-06T08:55:26.469Z,51.57
2018-03-06T08:58:00.249Z,51.42
2018-03-06T09:00:34.035Z,51.15
2018-03-06T09:03:07.953Z,50.68
2018-03-06T09:05:41.640Z,49.98
2018-03-06T09:08:15.162Z,48.51
2018-03-06T09:10:48.669Z,47.02
2018-03-06T09:13:22.285Z,46.01
2018-03-06T09:15:55.986Z,44.17
2018-03-06T09:18:29.730Z,42.68
2018-03-06T09:21:03.257Z,42.05
2018-03-06T09:23:36.989Z,42.83
2018-03-06T09:26:10.558Z,42.38
2018-03-06T09:28:44.346Z,40.95
2018-03-06T09:31:17.977Z,42.48
2018-03-06T09:33:51.672Z,42.86
2018-03-06T09:36:25.210Z,42.47
2018-03-06T09:38:58.715Z,41.91
2018-03-06T09:41:32.574Z,42.13
2018-03-06T09:44:06.225Z,42.16
2018-03-06T09:46:39.853Z,41.70
2018-03-06T09:49:13.434Z,43.48
2018-03-06T09:51:47.097Z,44.51
2018-03-06T09:54:20.668Z,45.96
2018-03-06T09:56:54.424Z,45.92
2018-03-06T09:59:28.156Z,46.60
2018-03-06T10:02:01.786Z,46.90
2018-03-06T10:04:35.350Z,47.11
2018-03-06T10:07:08.985Z,46.36
2018-03-06T10:09:42.661Z,47.04
2018-03-06T10:12:16.297Z,47.63
2018-03-06T10:14:49.825Z,48.51
2018-03-06T10:17:23.590Z,47.99
2018-03-06T10:19:57.225Z,47.77
2018-03-06T10:22:30.876Z,47.87
2018-03-06T10:25:04.670Z,48.30
2018-03-06T10:27:38.493Z,47.87
2018-03-06T10:30:12.023Z,47.14
2018-03-06T10:32:45.837Z,46.38
2018-03-06T10:35:19.780Z,46.64
2018-03-06T10:37:53.494Z,47.74
2018-03-06T10:40:27.186Z,48.28
2018-03-06T10:43:00.877Z,47.27
2018-03-06T10:45:34.470Z,48.86
2018-03-06T10:48:08.089Z,48.34
2018-03-06T10:50:42.137Z,46.47
2018-03-06T10:53:15.824Z,46.58
2018-03-06T10:55:49.422Z,45.78
2018-03-06T10:58:22.998Z,46.72
2018-03-06T11:00:56.777Z,46.19
2018-03-06T11:03:30.386Z,45.61
2018-03-06T11:06:04.166Z,46.40
2018-03-06T11:08:37.767Z,45.91
2018-03-06T11:11:11.329Z,45.26
2018-03-06T11:13:45.128Z,46.23
2018-03-06T11:16:18.874Z,47.44
2018-03-06T11:18:52.530Z,46.28
2018-03-06T11:21:26.190Z,46.12
2018-03-06T11:23:59.738Z,45.47
2018-03-06T11:26:33.297Z,45.85
2018-03-06T11:29:07.017Z,46.86
2018-03-06T11:31:40.678Z,47.86
2018-03-06T11:34:14.322Z,46.31
2018-03-06T11:36:52.890Z,47.05
2018-03-06T11:39:26.534Z,47.10
2018-03-06T11:42:00.242Z,47.68
2018-03-06T11:44:33.924Z,47.74
2018-03-06T11:47:07.789Z,47.78
2018-03-06T11:49:41.335Z,47.54
2018-03-06T11:52:14.964Z,47.39
2018-03-06T11:54:49.115Z,46.11
2018-03-06T11:57:22.727Z,45.88
2018-03-06T11:59:56.424Z,47.49
2018-03-06T12:02:30.289Z,48.02
2018-03-06T12:05:03.949Z,48.09
2018-03-06T12:07:37.585Z,47.60
2018-03-06T12:10:11.445Z,47.41
2018-03-06T12:12:44.998Z,46.52
2018-03-06T12:15:18.678Z,45.61
2018-03-06T12:17:52.310Z,47.28
2018-03-06T12:20:25.886Z,47.41
2018-03-06T12:22:59.667Z,46.97
2018-03-06T12:25:33.232Z,45.58
2018-03-06T12:28:06.846Z,46.00
2018-03-06T12:30:40.446Z,46.02
2018-03-06T12:33:14.032Z,46.53
2018-03-06T12:35:47.782Z,46.35
2018-03-06T12:38:21.438Z,47.41
2018-03-06T12:40:55.113Z,48.28
2018-03-06T12:43:28.696Z,47.27
2018-03-06T12:46:02.271Z,48.74
2018-03-06T12:48:35.836Z,48.55
2018-03-06T12:51:09.431Z,48.99
2018-03-06T12:53:43.036Z,48.59
2018-03-06T12:56:16.589Z,47.94
2018-03-06T12:58:50.165Z,48.65
2018-03-06T13:01:23.842Z,48.87
2018-03-06T13:03:57.378Z,48.71
2018-03-06T13:06:31.021Z,48.72
2018-03-06T13:09:04.822Z,48.38
2018-03-06T13:11:38.545Z,48.87
2018-03-06T13:14:12.306Z,48.77
2018-03-06T13:16:45.991Z,47.35
2018-03-06T13:19:19.703Z,46.25
2018-03-06T13:21:53.418Z,46.43
2018-03-06T13:24:27.340Z,46.86
2018-03-06T13:27:01.035Z,48.41
2018-03-06T13:29:34.726Z,47.87
2018-03-06T13:32:08.495Z,48.39
2018-03-06T13:34:42.189Z,48.17
2018-03-06T13:37:15.943Z,47.85
2018-03-06T13:39:49.523Z,48.45
2018-03-06T13:42:23.242Z,47.40
2018-03-06T13:44:56.889Z,47.77
2018-03-06T13:47:30.723Z,47.82
2018-03-06T13:50:04.346Z,47.73
2018-03-06T13:52:38.119Z,47.71
2018-03-06T13:55:11.670Z,47.03
2018-03-06T13:57:45.473Z,47.23
2018-03-06T14:00:19.278Z,45.96
2018-03-06T14:02:52.971Z,46.72
2018-03-06T14:05:26.576Z,47.38
2018-03-06T14:08:00.319Z,47.75
2018-03-06T14:10:34.015Z,47.20
2018-03-06T14:13:07.785Z,48.50
2018-03-06T14:15:41.470Z,48.98
2018-03-06T14:18:15.143Z,49.34
2018-03-06T14:20:48.794Z,48.93
2018-03-06T14:23:22.482Z,48.44
2018-03-06T14:25:56.148Z,49.08
2018-03-06T14:28:29.993Z,49.46
2018-03-06T14:31:03.716Z,49.23
2018-03-06T14:33:37.326Z,49.52
2018-03-06T14:36:11.126Z,49.29
2018-03-06T14:38:44.890Z,49.51
2018-03-06T14:41:18.800Z,49.44
2018-03-06T14:43:52.562Z,49.35
2018-03-06T14:46:26.250Z,50.09
2018-03-06T14:48:59.892Z,49.80
2018-03-06T14:51:33.678Z,50.13
2018-03-06T14:54:07.363Z,49.99
2018-03-06T14:56:41.054Z,49.86
2018-03-06T14:59:14.659Z,49.64
2018-03-06T15:01:48.392Z,49.86
2018-03-06T15:04:21.934Z,50.16
2018-03-06T15:06:55.674Z,50.36
2018-03-06T15:09:29.376Z,50.58
2018-03-06T15:12:03.094Z,51.17
2018-03-06T15:14:36.795Z,51.17
2018-03-06T15:17:10.599Z,51.09
2018-03-06T15:19:44.262Z,51.03
2018-03-06T15:22:17.850Z,50.89
2018-03-06T15:24:51.578Z,51.56
2018-03-06T15:27:25.262Z,52.26
2018-03-06T15:29:59.010Z,52.72
2018-03-06T15:32:32.751Z,53.19
2018-03-06T15:35:06.423Z,53.00
2018-03-06T15:37:40.083Z,52.79
2018-03-06T15:40:13.803Z,53.12
2018-03-06T15:42:47.454Z,53.58
2018-03-06T15:45:20.999Z,53.45
2018-03-06T15:47:54.782Z,53.86
2018-03-06T15:50:28.442Z,53.43
2018-03-06T15:53:02.014Z,53.53
2018-03-06T15:55:35.723Z,53.38
2018-03-06T15:58:09.270Z,53.73
2018-03-06T16:00:42.954Z,53.99
2018-03-06T16:03:16.650Z,54.15
2018-03-06T16:05:50.214Z,54.40
2018-03-06T16:08:23.928Z,54.39
2018-03-06T16:10:57.650Z,55.35
2018-03-06T16:13:31.266Z,55.09
2018-03-06T16:16:05.007Z,55.76
2018-03-06T16:18:38.638Z,55.74
2018-03-06T16:21:12.380Z,55.84
2018-03-06T16:23:46.008Z,56.39
2018-03-06T16:26:19.783Z,56.94
2018-03-06T16:28:53.316Z,56.91
2018-03-06T16:31:27.042Z,55.76
2018-03-06T16:34:00.778Z,55.79
2018-03-06T16:36:34.428Z,55.77
2018-03-06T16:39:07.976Z,55.90
2018-03-06T16:41:41.804Z,56.55
2018-03-06T16:44:15.414Z,56.88
2018-03-06T16:46:49.003Z,57.18
2018-03-06T16:49:22.711Z,57.66
2018-03-06T16:51:56.407Z,58.23
2018-03-06T16:54:30.919Z,58.80
2018-03-06T16:57:04.723Z,59.31
2018-03-06T16:59:38.382Z,59.92
2018-03-06T17:02:12.207Z,60.66
2018-03-06T17:04:46.124Z,61.07
2018-03-06T17:07:19.834Z,61.54
2018-03-06T17:09:53.362Z,61.83
2018-03-06T17:12:27.007Z,62.20
2018-03-06T17:15:00.604Z,62.52
2018-03-06T17:17:34.172Z,62.92
2018-03-06T17:20:08.238Z,63.47
2018-03-06T17:22:41.850Z,63.76
2018-03-06T17:25:15.414Z,64.15
2018-03-06T17:27:49.017Z,64.39
2018-03-06T17:30:22.603Z,64.65
2018-03-06T17:32:56.287Z,64.67
2018-03-06T17:35:29.960Z,64.77
2018-03-06T17:38:03.722Z,64.79
2018-03-06T17:40:37.272Z,64.84
2018-03-06T17:43:10.905Z,64.97
2018-03-06T17:45:44.527Z,65.18
2018-03-06T17:48:18.170Z,65.04
2018-03-06T17:50:51.966Z,65.43
2018-03-06T17:53:25.570Z,65.53
2018-03-06T17:55:59.270Z,65.57
2018-03-06T17:58:33.062Z,65.80
2018-03-06T18:01:06.847Z,66.57
2018-03-06T18:03:40.425Z,66.66
2018-03-06T18:06:14.087Z,67.01
2018-03-06T18:08:47.783Z,67.47
2018-03-06T18:11:21.565Z,67.89
2018-03-06T18:13:55.351Z,68.34
2018-03-06T18:16:28.945Z,68.08
2018-03-06T18:19:02.495Z,68.23
2018-03-06T18:21:36.147Z,67.94
2018-03-06T18:24:09.775Z,68.18
2018-03-06T18:26:43.419Z,68.14
2018-03-06T18:29:17.209Z,67.96
2018-03-06T18:31:51.342Z,67.76
2018-03-06T18:34:25.103Z,67.95
2018-03-06T18:36:58.861Z,67.94
2018-03-06T18:39:32.566Z,67.83
2018-03-06T18:42:06.140Z,67.70
2018-03-06T18:44:39.846Z,67.74
2018-03-06T18:47:13.455Z,67.72
2018-03-06T18:49:59.097Z,67.63
2018-03-06T18:52:32.685Z,67.61
2018-03-06T18:55:06.284Z,67.71
2018-03-06T18:57:39.999Z,67.60
2018-03-06T19:07:06.669Z,67.96
2018-03-06T19:09:40.324Z,68.17
2018-03-06T19:12:14.114Z,68.16
2018-03-06T19:14:48.346Z,68.38
2018-03-06T19:17:21.961Z,68.57
2018-03-06T19:19:55.709Z,68.66
2018-03-06T19:22:29.525Z,68.87
2018-03-06T19:25:03.091Z,68.98
2018-03-06T19:27:36.601Z,69.13
2018-03-06T19:30:10.157Z,69.17
2018-03-06T19:32:43.805Z,69.16
2018-03-06T19:35:17.481Z,69.16
2018-03-06T19:37:51.085Z,69.10
2018-03-06T19:40:24.657Z,69.18
2018-03-06T19:42:58.302Z,69.41
2018-03-06T19:45:31.906Z,69.41
2018-03-06T19:48:05.513Z,69.38
2018-03-06T19:50:39.132Z,69.42
2018-03-06T19:53:12.690Z,69.60
2018-03-06T19:55:46.282Z,69.68
2018-03-06T19:58:19.858Z,69.75
2018-03-06T20:00:53.525Z,69.49
2018-03-06T20:03:27.245Z,69.52
2018-03-06T20:06:00.993Z,69.65
2018-03-06T20:08:34.600Z,69.67
2018-03-06T20:11:08.311Z,69.77
2018-03-06T20:13:41.889Z,70.17
2018-03-06T20:16:15.502Z,70.12
2018-03-06T20:18:54.714Z,70.06
2018-03-06T20:21:28.390Z,70.04
2018-03-06T20:24:07.651Z,70.03
2018-03-06T20:26:41.357Z,70.31
2018-03-06T20:29:15.012Z,70.38
2018-03-06T20:31:54.290Z,70.62
2018-03-06T20:34:27.965Z,70.57
2018-03-06T20:37:01.629Z,70.53
2018-03-06T20:39:40.908Z,70.65
2018-03-06T20:42:14.608Z,70.55
2018-03-06T20:44:48.726Z,70.84
2018-03-06T20:47:22.370Z,70.90
2018-03-06T20:49:55.962Z,70.82
2018-03-06T20:52:29.645Z,70.70
2018-03-06T20:55:05.185Z,70.85
2018-03-06T20:57:38.914Z,71.06
2018-03-06T21:00:12.544Z,71.44
2018-03-06T21:02:46.118Z,72.37
2018-03-06T21:05:19.637Z,72.10
2018-03-06T21:07:53.258Z,73.46
2018-03-06T21:10:26.842Z,74.55
2018-03-06T21:13:01.620Z,74.68
2018-03-06T21:15:35.226Z,75.88
2018-03-06T21:18:08.880Z,76.24
2018-03-06T21:20:42.448Z,77.09
2018-03-06T21:23:16.229Z,76.91
